sensor_id;sensor_type;location;lat;lon;timestamp;pressure;altitude;pressure_sealevel;temperature;humidity
50172;BME280;37125;48.824;2.410;2023-07-16T00:00:04;100588.18;;;28.50;31.72
50172;BME280;37125;48.824;2.410;2023-07-16T00:00:35;100588.22;;;28.51;31.73
50172;BME280;37125;48.824;2.410;2023-07-16T00:01:06;100588.02;;;28.51;31.71
50172;BME280;37125;48.824;2.410;2023-07-16T00:01:36;100587.98;;;28.52;31.73
50172;BME280;37125;48.824;2.410;2023-07-16T00:02:07;100587.91;;;28.52;31.73
50172;BME280;37125;48.824;2.410;2023-07-16T00:02:38;100577.36;;;28.51;31.71
50172;BME280;37125;48.824;2.410;2023-07-16T00:03:09;100575.93;;;28.50;31.71
50172;BME280;37125;48.824;2.410;2023-07-16T00:03:39;100588.32;;;28.50;31.74
50172;BME280;37125;48.824;2.410;2023-07-16T00:04:10;100577.21;;;28.53;31.71
50172;BME280;37125;48.824;2.410;2023-07-16T00:04:40;100583.43;;;28.54;31.70
50172;BME280;37125;48.824;2.410;2023-07-16T00:05:11;100582.16;;;28.52;31.70
50172;BME280;37125;48.824;2.410;2023-07-16T00:05:42;100586.18;;;28.52;31.69
50172;BME280;37125;48.824;2.410;2023-07-16T00:06:12;100584.83;;;28.53;31.69
50172;BME280;37125;48.824;2.410;2023-07-16T00:06:43;100588.97;;;28.52;31.69
50172;BME280;37125;48.824;2.410;2023-07-16T00:07:14;100585.76;;;28.53;31.71
50172;BME280;37125;48.824;2.410;2023-07-16T00:07:44;100583.52;;;28.51;31.73
50172;BME280;37125;48.824;2.410;2023-07-16T00:08:15;100580.91;;;28.51;31.73
50172;BME280;37125;48.824;2.410;2023-07-16T00:08:46;100587.79;;;28.50;31.74
50172;BME280;37125;48.824;2.410;2023-07-16T00:09:16;100587.55;;;28.50;31.76
50172;BME280;37125;48.824;2.410;2023-07-16T00:09:47;100587.61;;;28.48;31.73
50172;BME280;37125;48.824;2.410;2023-07-16T00:10:18;100586.70;;;28.50;31.73
50172;BME280;37125;48.824;2.410;2023-07-16T00:10:48;100586.46;;;28.51;31.72
50172;BME280;37125;48.824;2.410;2023-07-16T00:11:19;100589.75;;;28.51;31.73
50172;BME280;37125;48.824;2.410;2023-07-16T00:11:50;100589.12;;;28.51;31.70
50172;BME280;37125;48.824;2.410;2023-07-16T00:12:20;100591.89;;;28.52;31.69
50172;BME280;37125;48.824;2.410;2023-07-16T00:12:51;100591.32;;;28.51;31.70
50172;BME280;37125;48.824;2.410;2023-07-16T00:13:22;100594.56;;;28.53;31.69
50172;BME280;37125;48.824;2.410;2023-07-16T00:13:52;100590.12;;;28.52;31.70
50172;BME280;37125;48.824;2.410;2023-07-16T00:14:23;100594.94;;;28.53;31.77
50172;BME280;37125;48.824;2.410;2023-07-16T00:14:54;100594.57;;;28.52;31.76
50172;BME280;37125;48.824;2.410;2023-07-16T00:15:24;100586.42;;;28.53;31.71
50172;BME280;37125;48.824;2.410;2023-07-16T00:15:55;100587.60;;;28.54;31.67
50172;BME280;37125;48.824;2.410;2023-07-16T00:16:26;100593.22;;;28.54;31.70
50172;BME280;37125;48.824;2.410;2023-07-16T00:16:57;100590.18;;;28.53;31.74
50172;BME280;37125;48.824;2.410;2023-07-16T00:17:28;100595.31;;;28.54;31.69
50172;BME280;37125;48.824;2.410;2023-07-16T00:17:59;100591.75;;;28.53;31.71
50172;BME280;37125;48.824;2.410;2023-07-16T00:18:30;100592.95;;;28.52;31.75
50172;BME280;37125;48.824;2.410;2023-07-16T00:19:00;100591.79;;;28.53;31.71
50172;BME280;37125;48.824;2.410;2023-07-16T00:19:31;100594.69;;;28.54;31.67
50172;BME280;37125;48.824;2.410;2023-07-16T00:20:02;100594.93;;;28.54;31.73
50172;BME280;37125;48.824;2.410;2023-07-16T00:20:32;100599.00;;;28.54;31.77
50172;BME280;37125;48.824;2.410;2023-07-16T00:21:03;100594.96;;;28.53;31.73
50172;BME280;37125;48.824;2.410;2023-07-16T00:21:33;100592.68;;;28.50;31.77
50172;BME280;37125;48.824;2.410;2023-07-16T00:22:04;100598.21;;;28.53;31.76
50172;BME280;37125;48.824;2.410;2023-07-16T00:22:35;100597.37;;;28.52;31.73
50172;BME280;37125;48.824;2.410;2023-07-16T00:23:05;100596.10;;;28.52;31.72
50172;BME280;37125;48.824;2.410;2023-07-16T00:23:36;100593.70;;;28.53;31.71
50172;BME280;37125;48.824;2.410;2023-07-16T00:24:07;100595.45;;;28.52;31.73
50172;BME280;37125;48.824;2.410;2023-07-16T00:24:37;100598.43;;;28.51;31.76
50172;BME280;37125;48.824;2.410;2023-07-16T00:25:08;100599.12;;;28.52;31.79
50172;BME280;37125;48.824;2.410;2023-07-16T00:25:39;100595.74;;;28.52;31.86
50172;BME280;37125;48.824;2.410;2023-07-16T00:26:09;100592.21;;;28.53;31.89
50172;BME280;37125;48.824;2.410;2023-07-16T00:26:40;100595.34;;;28.54;31.86
50172;BME280;37125;48.824;2.410;2023-07-16T00:27:10;100593.11;;;28.54;31.82
50172;BME280;37125;48.824;2.410;2023-07-16T00:27:41;100592.69;;;28.54;31.86
50172;BME280;37125;48.824;2.410;2023-07-16T00:28:12;100593.21;;;28.53;31.84
50172;BME280;37125;48.824;2.410;2023-07-16T00:28:42;100593.84;;;28.53;31.82
50172;BME280;37125;48.824;2.410;2023-07-16T00:29:13;100591.08;;;28.52;31.89
50172;BME280;37125;48.824;2.410;2023-07-16T00:29:43;100594.40;;;28.53;31.87
50172;BME280;37125;48.824;2.410;2023-07-16T00:30:14;100593.45;;;28.54;31.86
50172;BME280;37125;48.824;2.410;2023-07-16T00:30:45;100594.81;;;28.53;31.87
50172;BME280;37125;48.824;2.410;2023-07-16T00:31:15;100589.59;;;28.52;31.92
50172;BME280;37125;48.824;2.410;2023-07-16T00:31:46;100590.21;;;28.53;31.86
50172;BME280;37125;48.824;2.410;2023-07-16T00:32:16;100589.71;;;28.52;31.95
50172;BME280;37125;48.824;2.410;2023-07-16T00:32:47;100590.72;;;28.53;31.88
50172;BME280;37125;48.824;2.410;2023-07-16T00:33:18;100589.72;;;28.52;31.91
50172;BME280;37125;48.824;2.410;2023-07-16T00:33:48;100589.69;;;28.52;31.91
50172;BME280;37125;48.824;2.410;2023-07-16T00:34:19;100592.33;;;28.51;31.87
50172;BME280;37125;48.824;2.410;2023-07-16T00:34:50;100590.35;;;28.52;31.86
50172;BME280;37125;48.824;2.410;2023-07-16T00:35:20;100592.14;;;28.52;31.90
50172;BME280;37125;48.824;2.410;2023-07-16T00:35:51;100590.39;;;28.52;31.94
50172;BME280;37125;48.824;2.410;2023-07-16T00:36:22;100592.61;;;28.53;31.89
50172;BME280;37125;48.824;2.410;2023-07-16T00:36:52;100592.62;;;28.52;31.89
50172;BME280;37125;48.824;2.410;2023-07-16T00:37:23;100594.21;;;28.51;31.83
50172;BME280;37125;48.824;2.410;2023-07-16T00:37:54;100593.49;;;28.52;31.85
50172;BME280;37125;48.824;2.410;2023-07-16T00:38:24;100596.51;;;28.52;31.87
50172;BME280;37125;48.824;2.410;2023-07-16T00:38:55;100592.33;;;28.51;31.92
50172;BME280;37125;48.824;2.410;2023-07-16T00:39:25;100592.94;;;28.52;31.91
50172;BME280;37125;48.824;2.410;2023-07-16T00:39:56;100596.54;;;28.52;31.85
50172;BME280;37125;48.824;2.410;2023-07-16T00:40:27;100593.02;;;28.52;31.84
50172;BME280;37125;48.824;2.410;2023-07-16T00:40:57;100595.81;;;28.51;31.93
50172;BME280;37125;48.824;2.410;2023-07-16T00:41:28;100594.74;;;28.52;31.92
50172;BME280;37125;48.824;2.410;2023-07-16T00:41:58;100595.91;;;28.51;32.10
50172;BME280;37125;48.824;2.410;2023-07-16T00:42:29;100594.08;;;28.51;32.02
50172;BME280;37125;48.824;2.410;2023-07-16T00:43:00;100597.23;;;28.51;32.11
50172;BME280;37125;48.824;2.410;2023-07-16T00:43:30;100594.62;;;28.51;32.03
50172;BME280;37125;48.824;2.410;2023-07-16T00:44:01;100592.65;;;28.52;32.00
50172;BME280;37125;48.824;2.410;2023-07-16T00:44:32;100593.89;;;28.52;32.02
50172;BME280;37125;48.824;2.410;2023-07-16T00:45:03;100593.46;;;28.53;32.02
50172;BME280;37125;48.824;2.410;2023-07-16T00:45:39;100594.88;;;28.50;32.06
50172;BME280;37125;48.824;2.410;2023-07-16T00:46:11;100596.92;;;28.51;31.99
50172;BME280;37125;48.824;2.410;2023-07-16T00:46:42;100602.19;;;28.52;31.95
50172;BME280;37125;48.824;2.410;2023-07-16T00:47:13;100600.38;;;28.52;31.96
50172;BME280;37125;48.824;2.410;2023-07-16T00:47:44;100600.13;;;28.51;31.97
50172;BME280;37125;48.824;2.410;2023-07-16T00:48:15;100603.20;;;28.52;31.95
50172;BME280;37125;48.824;2.410;2023-07-16T00:48:45;100599.84;;;28.51;31.95
50172;BME280;37125;48.824;2.410;2023-07-16T00:49:16;100602.50;;;28.51;31.99
50172;BME280;37125;48.824;2.410;2023-07-16T00:49:47;100601.27;;;28.51;32.05
50172;BME280;37125;48.824;2.410;2023-07-16T00:50:19;100600.60;;;28.51;32.04
50172;BME280;37125;48.824;2.410;2023-07-16T00:50:50;100607.39;;;28.51;32.03
50172;BME280;37125;48.824;2.410;2023-07-16T00:51:24;100600.31;;;28.52;32.06
50172;BME280;37125;48.824;2.410;2023-07-16T00:51:56;100605.40;;;28.52;32.06
50172;BME280;37125;48.824;2.410;2023-07-16T00:52:28;100604.88;;;28.52;32.08
50172;BME280;37125;48.824;2.410;2023-07-16T00:52:59;100605.86;;;28.51;32.09
50172;BME280;37125;48.824;2.410;2023-07-16T00:53:30;100612.88;;;28.52;32.10
50172;BME280;37125;48.824;2.410;2023-07-16T00:54:01;100603.12;;;28.51;32.02
50172;BME280;37125;48.824;2.410;2023-07-16T00:54:31;100596.10;;;28.51;32.04
50172;BME280;37125;48.824;2.410;2023-07-16T00:55:03;100603.55;;;28.51;32.09
50172;BME280;37125;48.824;2.410;2023-07-16T00:55:34;100609.02;;;28.52;32.03
50172;BME280;37125;48.824;2.410;2023-07-16T00:56:05;100605.67;;;28.51;32.08
50172;BME280;37125;48.824;2.410;2023-07-16T00:56:37;100602.23;;;28.50;32.05
50172;BME280;37125;48.824;2.410;2023-07-16T00:57:08;100598.80;;;28.49;32.05
50172;BME280;37125;48.824;2.410;2023-07-16T00:57:39;100599.78;;;28.50;32.06
50172;BME280;37125;48.824;2.410;2023-07-16T00:58:09;100604.49;;;28.50;32.07
50172;BME280;37125;48.824;2.410;2023-07-16T00:58:40;100604.81;;;28.50;32.08
50172;BME280;37125;48.824;2.410;2023-07-16T00:59:11;100605.35;;;28.49;32.07
50172;BME280;37125;48.824;2.410;2023-07-16T00:59:41;100610.01;;;28.50;32.08
50172;BME280;37125;48.824;2.410;2023-07-16T01:00:12;100602.21;;;28.49;32.06
50172;BME280;37125;48.824;2.410;2023-07-16T01:00:43;100604.16;;;28.49;32.07
50172;BME280;37125;48.824;2.410;2023-07-16T01:01:13;100600.64;;;28.50;32.05
50172;BME280;37125;48.824;2.410;2023-07-16T01:01:44;100608.12;;;28.49;32.11
50172;BME280;37125;48.824;2.410;2023-07-16T01:02:14;100607.05;;;28.50;32.12
50172;BME280;37125;48.824;2.410;2023-07-16T01:02:45;100610.01;;;28.50;32.09
50172;BME280;37125;48.824;2.410;2023-07-16T01:03:16;100605.07;;;28.50;32.03
50172;BME280;37125;48.824;2.410;2023-07-16T01:03:46;100606.43;;;28.49;32.05
50172;BME280;37125;48.824;2.410;2023-07-16T01:04:17;100604.34;;;28.50;32.05
50172;BME280;37125;48.824;2.410;2023-07-16T01:04:48;100607.24;;;28.50;32.09
50172;BME280;37125;48.824;2.410;2023-07-16T01:05:18;100608.93;;;28.49;32.17
50172;BME280;37125;48.824;2.410;2023-07-16T01:05:54;100610.01;;;28.50;32.15
50172;BME280;37125;48.824;2.410;2023-07-16T01:06:32;100610.79;;;28.48;32.14
50172;BME280;37125;48.824;2.410;2023-07-16T01:07:06;100609.04;;;28.49;32.08
50172;BME280;37125;48.824;2.410;2023-07-16T01:07:41;100607.35;;;28.50;32.18
50172;BME280;37125;48.824;2.410;2023-07-16T01:08:20;100607.98;;;28.50;32.18
50172;BME280;37125;48.824;2.410;2023-07-16T01:08:58;100607.07;;;28.49;32.27
50172;BME280;37125;48.824;2.410;2023-07-16T01:09:32;100609.80;;;28.49;32.21
50172;BME280;37125;48.824;2.410;2023-07-16T01:10:04;100605.32;;;28.49;32.17
50172;BME280;37125;48.824;2.410;2023-07-16T01:10:35;100605.08;;;28.48;32.18
50172;BME280;37125;48.824;2.410;2023-07-16T01:11:07;100609.22;;;28.47;32.21
50172;BME280;37125;48.824;2.410;2023-07-16T01:11:40;100607.66;;;28.49;32.18
50172;BME280;37125;48.824;2.410;2023-07-16T01:12:11;100608.82;;;28.49;32.24
50172;BME280;37125;48.824;2.410;2023-07-16T01:12:42;100613.23;;;28.48;32.26
50172;BME280;37125;48.824;2.410;2023-07-16T01:13:14;100612.04;;;28.48;32.22
50172;BME280;37125;48.824;2.410;2023-07-16T01:13:45;100613.58;;;28.49;32.21
50172;BME280;37125;48.824;2.410;2023-07-16T01:14:17;100612.61;;;28.48;32.19
50172;BME280;37125;48.824;2.410;2023-07-16T01:14:49;100615.58;;;28.49;32.18
50172;BME280;37125;48.824;2.410;2023-07-16T01:15:21;100613.47;;;28.49;32.26
50172;BME280;37125;48.824;2.410;2023-07-16T01:15:52;100613.97;;;28.49;32.33
50172;BME280;37125;48.824;2.410;2023-07-16T01:16:24;100614.89;;;28.49;32.29
50172;BME280;37125;48.824;2.410;2023-07-16T01:16:54;100615.72;;;28.50;32.30
50172;BME280;37125;48.824;2.410;2023-07-16T01:17:25;100619.12;;;28.49;32.29
50172;BME280;37125;48.824;2.410;2023-07-16T01:17:56;100613.94;;;28.49;32.22
50172;BME280;37125;48.824;2.410;2023-07-16T01:18:26;100617.25;;;28.48;32.24
50172;BME280;37125;48.824;2.410;2023-07-16T01:18:57;100615.66;;;28.48;32.30
50172;BME280;37125;48.824;2.410;2023-07-16T01:19:28;100618.20;;;28.49;32.28
50172;BME280;37125;48.824;2.410;2023-07-16T01:19:59;100620.33;;;28.49;32.23
50172;BME280;37125;48.824;2.410;2023-07-16T01:20:29;100622.56;;;28.49;32.21
50172;BME280;37125;48.824;2.410;2023-07-16T01:21:00;100621.66;;;28.49;32.23
50172;BME280;37125;48.824;2.410;2023-07-16T01:21:34;100624.53;;;28.48;32.36
50172;BME280;37125;48.824;2.410;2023-07-16T01:22:21;100627.28;;;28.48;32.34
50172;BME280;37125;48.824;2.410;2023-07-16T01:23:09;100623.94;;;28.50;32.22
50172;BME280;37125;48.824;2.410;2023-07-16T01:23:59;100623.88;;;28.48;32.31
50172;BME280;37125;48.824;2.410;2023-07-16T01:24:46;100627.83;;;28.49;32.21
50172;BME280;37125;48.824;2.410;2023-07-16T01:25:36;100628.54;;;28.47;32.30
50172;BME280;37125;48.824;2.410;2023-07-16T01:26:31;100627.75;;;28.47;32.26
50172;BME280;37125;48.824;2.410;2023-07-16T01:27:22;100623.60;;;28.47;32.27
50172;BME280;37125;48.824;2.410;2023-07-16T01:28:08;100628.22;;;28.48;32.26
50172;BME280;37125;48.824;2.410;2023-07-16T01:29:05;100627.57;;;28.49;32.34
50172;BME280;37125;48.824;2.410;2023-07-16T01:29:39;100626.00;;;28.49;32.34
50172;BME280;37125;48.824;2.410;2023-07-16T01:30:15;100623.49;;;28.48;32.33
50172;BME280;37125;48.824;2.410;2023-07-16T01:30:47;100630.31;;;28.49;32.33
50172;BME280;37125;48.824;2.410;2023-07-16T01:31:19;100623.38;;;28.48;32.32
50172;BME280;37125;48.824;2.410;2023-07-16T01:31:50;100629.99;;;28.48;32.33
50172;BME280;37125;48.824;2.410;2023-07-16T01:32:21;100626.53;;;28.49;32.33
50172;BME280;37125;48.824;2.410;2023-07-16T01:32:53;100627.16;;;28.47;32.38
50172;BME280;37125;48.824;2.410;2023-07-16T01:33:24;100630.04;;;28.49;32.40
50172;BME280;37125;48.824;2.410;2023-07-16T01:33:55;100629.31;;;28.48;32.41
50172;BME280;37125;48.824;2.410;2023-07-16T01:34:28;100629.75;;;28.49;32.37
50172;BME280;37125;48.824;2.410;2023-07-16T01:35:00;100635.96;;;28.49;32.37
50172;BME280;37125;48.824;2.410;2023-07-16T01:35:31;100623.55;;;28.49;32.36
50172;BME280;37125;48.824;2.410;2023-07-16T01:36:03;100629.24;;;28.48;32.34
50172;BME280;37125;48.824;2.410;2023-07-16T01:36:36;100631.37;;;28.47;32.41
50172;BME280;37125;48.824;2.410;2023-07-16T01:37:08;100627.79;;;28.48;32.41
50172;BME280;37125;48.824;2.410;2023-07-16T01:37:40;100627.27;;;28.47;32.40
50172;BME280;37125;48.824;2.410;2023-07-16T01:38:11;100631.29;;;28.48;32.32
50172;BME280;37125;48.824;2.410;2023-07-16T01:38:42;100634.96;;;28.48;32.32
50172;BME280;37125;48.824;2.410;2023-07-16T01:39:13;100629.06;;;28.47;32.31
50172;BME280;37125;48.824;2.410;2023-07-16T01:39:44;100629.43;;;28.47;32.34
50172;BME280;37125;48.824;2.410;2023-07-16T01:40:15;100631.55;;;28.47;32.34
50172;BME280;37125;48.824;2.410;2023-07-16T01:40:46;100629.89;;;28.46;32.36
50172;BME280;37125;48.824;2.410;2023-07-16T01:41:16;100626.89;;;28.46;32.38
50172;BME280;37125;48.824;2.410;2023-07-16T01:41:47;100626.50;;;28.46;32.37
50172;BME280;37125;48.824;2.410;2023-07-16T01:42:17;100626.07;;;28.47;32.35
50172;BME280;37125;48.824;2.410;2023-07-16T01:42:48;100625.00;;;28.45;32.34
50172;BME280;37125;48.824;2.410;2023-07-16T01:43:19;100626.76;;;28.47;32.34
50172;BME280;37125;48.824;2.410;2023-07-16T01:43:49;100627.60;;;28.45;32.39
50172;BME280;37125;48.824;2.410;2023-07-16T01:44:20;100627.83;;;28.45;32.42
50172;BME280;37125;48.824;2.410;2023-07-16T01:44:51;100629.47;;;28.45;32.38
50172;BME280;37125;48.824;2.410;2023-07-16T01:45:21;100630.44;;;28.46;32.39
50172;BME280;37125;48.824;2.410;2023-07-16T01:45:52;100628.21;;;28.46;32.36
50172;BME280;37125;48.824;2.410;2023-07-16T01:46:23;100630.96;;;28.47;32.39
50172;BME280;37125;48.824;2.410;2023-07-16T01:47:04;100630.86;;;28.47;32.37
50172;BME280;37125;48.824;2.410;2023-07-16T01:47:43;100626.28;;;28.47;32.40
50172;BME280;37125;48.824;2.410;2023-07-16T01:48:24;100626.64;;;28.46;32.40
50172;BME280;37125;48.824;2.410;2023-07-16T01:48:59;100623.73;;;28.47;32.36
50172;BME280;37125;48.824;2.410;2023-07-16T01:49:30;100625.11;;;28.48;32.43
50172;BME280;37125;48.824;2.410;2023-07-16T01:50:00;100622.40;;;28.46;32.43
50172;BME280;37125;48.824;2.410;2023-07-16T01:50:31;100624.94;;;28.46;32.42
50172;BME280;37125;48.824;2.410;2023-07-16T01:51:02;100624.22;;;28.46;32.37
50172;BME280;37125;48.824;2.410;2023-07-16T01:51:33;100624.83;;;28.46;32.39
50172;BME280;37125;48.824;2.410;2023-07-16T01:52:07;100624.19;;;28.47;32.38
50172;BME280;37125;48.824;2.410;2023-07-16T01:52:37;100620.58;;;28.46;32.44
50172;BME280;37125;48.824;2.410;2023-07-16T01:53:08;100622.48;;;28.46;32.43
50172;BME280;37125;48.824;2.410;2023-07-16T01:53:38;100628.36;;;28.45;32.43
50172;BME280;37125;48.824;2.410;2023-07-16T01:54:09;100626.97;;;28.46;32.42
50172;BME280;37125;48.824;2.410;2023-07-16T01:54:39;100627.71;;;28.47;32.40
50172;BME280;37125;48.824;2.410;2023-07-16T01:55:10;100626.83;;;28.45;32.41
50172;BME280;37125;48.824;2.410;2023-07-16T01:55:41;100631.32;;;28.44;32.42
50172;BME280;37125;48.824;2.410;2023-07-16T01:56:12;100629.36;;;28.44;32.42
50172;BME280;37125;48.824;2.410;2023-07-16T01:56:42;100631.45;;;28.45;32.40
50172;BME280;37125;48.824;2.410;2023-07-16T01:57:13;100634.66;;;28.46;32.37
50172;BME280;37125;48.824;2.410;2023-07-16T01:57:44;100633.03;;;28.46;32.36
50172;BME280;37125;48.824;2.410;2023-07-16T01:58:14;100640.66;;;28.46;32.37
50172;BME280;37125;48.824;2.410;2023-07-16T01:58:45;100633.86;;;28.45;32.37
50172;BME280;37125;48.824;2.410;2023-07-16T01:59:15;100636.28;;;28.46;32.36
50172;BME280;37125;48.824;2.410;2023-07-16T01:59:46;100634.59;;;28.45;32.37
50172;BME280;37125;48.824;2.410;2023-07-16T02:00:17;100635.94;;;28.45;32.36
50172;BME280;37125;48.824;2.410;2023-07-16T02:00:49;100635.12;;;28.45;32.34
50172;BME280;37125;48.824;2.410;2023-07-16T02:01:20;100631.01;;;28.45;32.34
50172;BME280;37125;48.824;2.410;2023-07-16T02:01:51;100636.23;;;28.45;32.32
50172;BME280;37125;48.824;2.410;2023-07-16T02:02:21;100637.36;;;28.44;32.34
50172;BME280;37125;48.824;2.410;2023-07-16T02:02:52;100634.26;;;28.45;32.33
50172;BME280;37125;48.824;2.410;2023-07-16T02:03:22;100638.37;;;28.46;32.32
50172;BME280;37125;48.824;2.410;2023-07-16T02:03:53;100636.23;;;28.45;32.34
50172;BME280;37125;48.824;2.410;2023-07-16T02:04:24;100631.70;;;28.44;32.39
50172;BME280;37125;48.824;2.410;2023-07-16T02:04:54;100630.53;;;28.44;32.39
50172;BME280;37125;48.824;2.410;2023-07-16T02:05:25;100636.63;;;28.43;32.42
50172;BME280;37125;48.824;2.410;2023-07-16T02:05:55;100631.92;;;28.44;32.40
50172;BME280;37125;48.824;2.410;2023-07-16T02:06:26;100634.26;;;28.45;32.42
50172;BME280;37125;48.824;2.410;2023-07-16T02:06:57;100633.99;;;28.46;32.45
50172;BME280;37125;48.824;2.410;2023-07-16T02:07:27;100634.74;;;28.44;32.47
50172;BME280;37125;48.824;2.410;2023-07-16T02:07:58;100632.80;;;28.45;32.49
50172;BME280;37125;48.824;2.410;2023-07-16T02:08:29;100637.00;;;28.46;32.45
50172;BME280;37125;48.824;2.410;2023-07-16T02:08:59;100634.97;;;28.44;32.47
50172;BME280;37125;48.824;2.410;2023-07-16T02:09:30;100635.37;;;28.44;32.46
50172;BME280;37125;48.824;2.410;2023-07-16T02:10:00;100636.07;;;28.44;32.47
50172;BME280;37125;48.824;2.410;2023-07-16T02:10:31;100637.90;;;28.42;32.50
50172;BME280;37125;48.824;2.410;2023-07-16T02:11:01;100634.44;;;28.45;32.49
50172;BME280;37125;48.824;2.410;2023-07-16T02:11:32;100632.59;;;28.44;32.50
50172;BME280;37125;48.824;2.410;2023-07-16T02:12:03;100634.51;;;28.44;32.48
50172;BME280;37125;48.824;2.410;2023-07-16T02:12:34;100636.37;;;28.43;32.53
50172;BME280;37125;48.824;2.410;2023-07-16T02:13:05;100635.41;;;28.43;32.53
50172;BME280;37125;48.824;2.410;2023-07-16T02:13:35;100634.11;;;28.45;32.53
50172;BME280;37125;48.824;2.410;2023-07-16T02:14:06;100635.73;;;28.45;32.46
50172;BME280;37125;48.824;2.410;2023-07-16T02:14:36;100635.55;;;28.43;32.50
50172;BME280;37125;48.824;2.410;2023-07-16T02:15:07;100631.99;;;28.43;32.55
50172;BME280;37125;48.824;2.410;2023-07-16T02:15:38;100638.12;;;28.44;32.54
50172;BME280;37125;48.824;2.410;2023-07-16T02:16:08;100636.53;;;28.44;32.55
50172;BME280;37125;48.824;2.410;2023-07-16T02:16:39;100638.59;;;28.43;32.53
50172;BME280;37125;48.824;2.410;2023-07-16T02:17:10;100638.86;;;28.44;32.53
50172;BME280;37125;48.824;2.410;2023-07-16T02:17:40;100639.49;;;28.44;32.60
50172;BME280;37125;48.824;2.410;2023-07-16T02:18:11;100639.37;;;28.44;32.65
50172;BME280;37125;48.824;2.410;2023-07-16T02:18:42;100641.75;;;28.43;32.58
50172;BME280;37125;48.824;2.410;2023-07-16T02:19:12;100643.12;;;28.45;32.50
50172;BME280;37125;48.824;2.410;2023-07-16T02:19:43;100643.41;;;28.44;32.52
50172;BME280;37125;48.824;2.410;2023-07-16T02:20:13;100643.91;;;28.45;32.52
50172;BME280;37125;48.824;2.410;2023-07-16T02:20:44;100646.09;;;28.44;32.50
50172;BME280;37125;48.824;2.410;2023-07-16T02:21:14;100644.10;;;28.44;32.56
50172;BME280;37125;48.824;2.410;2023-07-16T02:21:45;100643.93;;;28.44;32.58
50172;BME280;37125;48.824;2.410;2023-07-16T02:22:16;100640.54;;;28.44;32.55
50172;BME280;37125;48.824;2.410;2023-07-16T02:22:46;100645.21;;;28.44;32.55
50172;BME280;37125;48.824;2.410;2023-07-16T02:23:17;100649.22;;;28.45;32.53
50172;BME280;37125;48.824;2.410;2023-07-16T02:23:47;100645.07;;;28.44;32.55
50172;BME280;37125;48.824;2.410;2023-07-16T02:24:18;100648.24;;;28.44;32.55
50172;BME280;37125;48.824;2.410;2023-07-16T02:24:49;100648.23;;;28.44;32.59
50172;BME280;37125;48.824;2.410;2023-07-16T02:25:19;100648.82;;;28.44;32.57
50172;BME280;37125;48.824;2.410;2023-07-16T02:25:50;100650.63;;;28.44;32.59
50172;BME280;37125;48.824;2.410;2023-07-16T02:26:20;100651.32;;;28.44;32.58
50172;BME280;37125;48.824;2.410;2023-07-16T02:26:51;100651.16;;;28.45;32.66
50172;BME280;37125;48.824;2.410;2023-07-16T02:27:22;100653.27;;;28.44;32.69
50172;BME280;37125;48.824;2.410;2023-07-16T02:27:53;100651.11;;;28.46;32.60
50172;BME280;37125;48.824;2.410;2023-07-16T02:28:23;100654.49;;;28.45;32.59
50172;BME280;37125;48.824;2.410;2023-07-16T02:28:54;100652.18;;;28.44;32.60
50172;BME280;37125;48.824;2.410;2023-07-16T02:29:24;100655.61;;;28.44;32.58
50172;BME280;37125;48.824;2.410;2023-07-16T02:29:55;100654.42;;;28.44;32.54
50172;BME280;37125;48.824;2.410;2023-07-16T02:30:26;100657.16;;;28.44;32.55
50172;BME280;37125;48.824;2.410;2023-07-16T02:30:58;100655.95;;;28.42;32.55
50172;BME280;37125;48.824;2.410;2023-07-16T02:31:29;100657.00;;;28.43;32.54
50172;BME280;37125;48.824;2.410;2023-07-16T02:31:59;100656.90;;;28.43;32.52
50172;BME280;37125;48.824;2.410;2023-07-16T02:32:30;100659.92;;;28.43;32.55
50172;BME280;37125;48.824;2.410;2023-07-16T02:33:00;100662.72;;;28.43;32.55
50172;BME280;37125;48.824;2.410;2023-07-16T02:33:31;100660.15;;;28.43;32.57
50172;BME280;37125;48.824;2.410;2023-07-16T02:34:02;100661.05;;;28.43;32.56
50172;BME280;37125;48.824;2.410;2023-07-16T02:34:32;100660.33;;;28.43;32.52
50172;BME280;37125;48.824;2.410;2023-07-16T02:35:03;100662.67;;;28.41;32.52
50172;BME280;37125;48.824;2.410;2023-07-16T02:35:34;100660.06;;;28.43;32.49
50172;BME280;37125;48.824;2.410;2023-07-16T02:36:05;100659.54;;;28.42;32.50
50172;BME280;37125;48.824;2.410;2023-07-16T02:36:35;100660.35;;;28.41;32.51
50172;BME280;37125;48.824;2.410;2023-07-16T02:37:06;100659.44;;;28.42;32.52
50172;BME280;37125;48.824;2.410;2023-07-16T02:37:37;100661.08;;;28.41;32.53
50172;BME280;37125;48.824;2.410;2023-07-16T02:38:07;100666.93;;;28.43;32.52
50172;BME280;37125;48.824;2.410;2023-07-16T02:38:38;100658.51;;;28.42;32.59
50172;BME280;37125;48.824;2.410;2023-07-16T02:39:08;100663.20;;;28.43;32.66
50172;BME280;37125;48.824;2.410;2023-07-16T02:39:41;100661.55;;;28.41;32.61
50172;BME280;37125;48.824;2.410;2023-07-16T02:40:12;100664.67;;;28.41;32.60
50172;BME280;37125;48.824;2.410;2023-07-16T02:40:43;100665.87;;;28.43;32.55
50172;BME280;37125;48.824;2.410;2023-07-16T02:41:14;100666.72;;;28.41;32.55
50172;BME280;37125;48.824;2.410;2023-07-16T02:41:44;100664.77;;;28.41;32.56
50172;BME280;37125;48.824;2.410;2023-07-16T02:42:15;100665.14;;;28.43;32.55
50172;BME280;37125;48.824;2.410;2023-07-16T02:42:46;100662.61;;;28.43;32.59
50172;BME280;37125;48.824;2.410;2023-07-16T02:43:16;100663.58;;;28.43;32.60
50172;BME280;37125;48.824;2.410;2023-07-16T02:43:47;100663.29;;;28.42;32.59
50172;BME280;37125;48.824;2.410;2023-07-16T02:44:18;100663.52;;;28.42;32.58
50172;BME280;37125;48.824;2.410;2023-07-16T02:44:48;100667.00;;;28.43;32.56
50172;BME280;37125;48.824;2.410;2023-07-16T02:45:19;100667.42;;;28.43;32.56